Time;durP1;ratioP1;P1;durP2;ratioP2;P2;SDS_P1;SDS_P2;PMS_P1;PMS_P2;Temp;Humidity;BMP_temperature;BMP_pressure;BME280_temperature;BME280_humidity;BME280_pressure;Samples;Min_cycle;Max_cycle;Signal;HPM_P1;HPM_P2
2021/04/25 00:01:08;;;;;;;;;;;23.00;26.90;;;;;;491778;240;1455;-72
2021/04/25 00:03:09;;;;;;;;;;;23.10;26.90;;;;;;491839;240;1078;-72
2021/04/25 00:05:11;;;;;;;;;;;23.00;26.90;;;;;;491789;240;967;-72
2021/04/25 00:07:12;;;;;;;;;;;23.00;26.90;;;;;;491860;240;928;-73
2021/04/25 00:09:13;;;;;;;;;;;23.10;26.90;;;;;;491918;240;964;-73
2021/04/25 00:11:14;;;;;;;;;;;23.10;26.90;;;;;;491840;240;2124;-73
2021/04/25 00:13:16;;;;;;;;;;;23.00;26.90;;;;;;491917;240;1241;-72
2021/04/25 00:15:17;;;;;;;;;;;23.00;27.00;;;;;;491866;240;1050;-73
2021/04/25 00:17:19;;;;;;;;;;;22.90;27.00;;;;;;491832;240;907;-73
2021/04/25 00:19:20;;;;;;;;;;;22.90;27.00;;;;;;491794;240;973;-73
2021/04/25 00:21:22;;;;;;;;;;;23.00;27.00;;;;;;491746;240;1357;-72
2021/04/25 00:23:23;;;;;;;;;;;23.00;27.00;;;;;;491792;240;1288;-73
2021/04/25 00:25:24;;;;;;;;;;;22.90;27.10;;;;;;491850;240;952;-73
2021/04/25 00:27:25;;;;;;;;;;;22.90;27.10;;;;;;491855;240;1203;-73
2021/04/25 00:29:26;;;;;;;;;;;22.90;27.10;;;;;;491828;240;960;-72
2021/04/25 00:31:28;;;;;;;;;;;22.90;27.10;;;;;;491816;240;2341;-72
2021/04/25 00:33:29;;;;;;;;;;;22.90;27.20;;;;;;491816;240;1022;-72
2021/04/25 00:35:30;;;;;;;;;;;22.90;27.20;;;;;;491848;240;958;-72
2021/04/25 00:37:31;;;;;;;;;;;22.80;27.10;;;;;;491815;240;1165;-72
2021/04/25 00:39:33;;;;;;;;;;;22.90;27.10;;;;;;491890;240;1123;-72
2021/04/25 00:41:35;;;;;;;;;;;22.80;27.10;;;;;;491810;240;968;-73
2021/04/25 00:43:36;;;;;;;;;;;22.80;27.20;;;;;;491935;240;1186;-72
2021/04/25 00:45:38;;;;;;;;;;;22.80;27.20;;;;;;491873;240;928;-72
2021/04/25 00:47:39;;;;;;;;;;;22.80;27.20;;;;;;491808;240;1051;-72
2021/04/25 00:49:40;;;;;;;;;;;22.90;27.20;;;;;;491825;240;946;-73
2021/04/25 00:51:42;;;;;;;;;;;22.90;27.20;;;;;;491745;240;2204;-73
2021/04/25 00:53:43;;;;;;;;;;;22.90;27.20;;;;;;491799;240;982;-73
2021/04/25 00:55:44;;;;;;;;;;;22.80;27.20;;;;;;491816;240;1051;-73
2021/04/25 00:57:46;;;;;;;;;;;22.90;27.20;;;;;;491838;240;1225;-73
2021/04/25 00:59:47;;;;;;;;;;;22.80;27.30;;;;;;491818;240;1075;-73
2021/04/25 01:01:48;;;;;;;;;;;22.80;27.30;;;;;;491805;240;1220;-73
2021/04/25 01:03:50;;;;;;;;;;;22.70;27.30;;;;;;491790;240;1067;-72
2021/04/25 01:05:51;;;;;;;;;;;22.80;27.20;;;;;;491832;240;943;-72
2021/04/25 01:07:52;;;;;;;;;;;22.80;27.20;;;;;;491833;240;1213;-72
2021/04/25 01:09:53;;;;;;;;;;;22.80;27.20;;;;;;491857;240;1093;-73
2021/04/25 01:11:55;;;;;;;;;;;22.80;27.20;;;;;;491746;240;2196;-73
2021/04/25 01:13:56;;;;;;;;;;;22.80;27.20;;;;;;491909;240;1203;-73
2021/04/25 01:15:57;;;;;;;;;;;22.80;27.30;;;;;;491836;240;1138;-73
2021/04/25 01:17:59;;;;;;;;;;;22.80;27.30;;;;;;491856;240;1295;-73
2021/04/25 01:20:00;;;;;;;;;;;22.80;27.20;;;;;;491918;240;934;-73
2021/04/25 01:22:01;;;;;;;;;;;22.80;27.20;;;;;;491818;240;1005;-73
2021/04/25 01:24:02;;;;;;;;;;;22.80;27.30;;;;;;491821;240;1062;-73
2021/04/25 01:26:04;;;;;;;;;;;22.70;27.30;;;;;;491800;240;952;-73
2021/04/25 01:28:05;;;;;;;;;;;22.70;27.30;;;;;;491761;238;1374;-73
2021/04/25 01:30:06;;;;;;;;;;;22.70;27.40;;;;;;491854;240;966;-73
2021/04/25 01:32:08;;;;;;;;;;;22.60;27.40;;;;;;491791;240;2188;-73
2021/04/25 01:34:09;;;;;;;;;;;22.70;27.40;;;;;;491882;240;990;-73
2021/04/25 01:36:10;;;;;;;;;;;22.70;27.40;;;;;;491800;240;984;-73
2021/04/25 01:38:11;;;;;;;;;;;22.70;27.40;;;;;;491843;240;952;-73
2021/04/25 01:40:13;;;;;;;;;;;22.70;27.40;;;;;;491818;240;1033;-73
2021/04/25 01:42:14;;;;;;;;;;;22.70;27.30;;;;;;491850;240;1053;-72
2021/04/25 01:44:15;;;;;;;;;;;22.70;27.30;;;;;;491791;240;1207;-72
2021/04/25 01:46:17;;;;;;;;;;;22.70;27.40;;;;;;491772;240;1085;-72
2021/04/25 01:48:18;;;;;;;;;;;22.70;27.40;;;;;;491858;240;1070;-73
2021/04/25 01:50:19;;;;;;;;;;;22.70;27.40;;;;;;491904;240;1024;-73
2021/04/25 01:52:21;;;;;;;;;;;22.70;27.40;;;;;;491789;240;2120;-72
2021/04/25 01:54:22;;;;;;;;;;;22.70;27.40;;;;;;491880;240;1002;-73
2021/04/25 01:56:23;;;;;;;;;;;22.70;27.40;;;;;;491890;240;1227;-73
2021/04/25 01:58:25;;;;;;;;;;;22.70;27.40;;;;;;491835;240;1161;-73
2021/04/25 02:00:26;;;;;;;;;;;22.70;27.40;;;;;;491828;240;1136;-73
2021/04/25 02:02:27;;;;;;;;;;;22.60;27.40;;;;;;491818;240;1131;-73
2021/04/25 02:04:28;;;;;;;;;;;22.60;27.40;;;;;;491795;240;956;-73
2021/04/25 02:06:30;;;;;;;;;;;22.60;27.40;;;;;;491800;240;1106;-72
2021/04/25 02:08:31;;;;;;;;;;;22.50;27.50;;;;;;491843;240;1039;-72
2021/04/25 02:10:32;;;;;;;;;;;22.60;27.60;;;;;;491818;240;953;-73
2021/04/25 02:12:33;;;;;;;;;;;22.60;27.50;;;;;;491869;240;2175;-73
2021/04/25 02:14:35;;;;;;;;;;;22.50;27.50;;;;;;491842;240;1208;-72
2021/04/25 02:16:36;;;;;;;;;;;22.50;27.60;;;;;;491776;240;1223;-74
2021/04/25 02:18:37;;;;;;;;;;;22.50;27.60;;;;;;491879;240;932;-73
2021/04/25 02:20:39;;;;;;;;;;;22.50;27.60;;;;;;491902;240;1109;-72
2021/04/25 02:22:40;;;;;;;;;;;22.50;27.50;;;;;;491848;240;964;-72
2021/04/25 02:24:41;;;;;;;;;;;22.50;27.60;;;;;;491795;240;937;-72
2021/04/25 02:26:42;;;;;;;;;;;22.50;27.60;;;;;;491855;240;1035;-73
2021/04/25 02:28:44;;;;;;;;;;;22.40;27.60;;;;;;491870;240;1221;-72
2021/04/25 02:30:45;;;;;;;;;;;22.50;27.70;;;;;;491800;240;1072;-72
2021/04/25 02:32:47;;;;;;;;;;;22.40;27.70;;;;;;491796;240;2184;-72
2021/04/25 02:34:48;;;;;;;;;;;22.40;27.70;;;;;;491803;240;1026;-72
2021/04/25 02:36:49;;;;;;;;;;;22.40;27.70;;;;;;491811;240;929;-72
2021/04/25 02:38:50;;;;;;;;;;;22.40;27.70;;;;;;491868;240;971;-73
2021/04/25 02:40:52;;;;;;;;;;;22.30;27.70;;;;;;491864;240;1099;-73
2021/04/25 02:42:53;;;;;;;;;;;22.30;27.80;;;;;;491877;240;946;-73
2021/04/25 02:44:54;;;;;;;;;;;22.30;27.80;;;;;;491874;240;1314;-72
2021/04/25 02:46:55;;;;;;;;;;;22.30;27.90;;;;;;491791;240;919;-73
2021/04/25 02:48:57;;;;;;;;;;;22.30;27.90;;;;;;491828;240;1031;-73
2021/04/25 02:50:58;;;;;;;;;;;22.30;27.80;;;;;;491828;240;2196;-73
2021/04/25 02:53:00;;;;;;;;;;;22.30;27.80;;;;;;491814;240;930;-72
2021/04/25 02:55:01;;;;;;;;;;;22.30;27.90;;;;;;491868;240;914;-72
2021/04/25 02:57:02;;;;;;;;;;;22.30;27.80;;;;;;491780;240;936;-72
2021/04/25 02:59:03;;;;;;;;;;;22.20;27.90;;;;;;491867;240;1193;-73
2021/04/25 03:01:05;;;;;;;;;;;22.20;27.90;;;;;;491822;240;1067;-72
2021/04/25 03:03:06;;;;;;;;;;;22.20;28.00;;;;;;491847;240;949;-72
2021/04/25 03:05:07;;;;;;;;;;;22.20;27.90;;;;;;491821;240;1126;-73
2021/04/25 03:07:09;;;;;;;;;;;22.20;28.00;;;;;;491860;240;1021;-72
2021/04/25 03:09:10;;;;;;;;;;;22.20;28.00;;;;;;491904;240;948;-72
2021/04/25 03:11:11;;;;;;;;;;;22.20;28.00;;;;;;491788;240;2188;-72
2021/04/25 03:13:12;;;;;;;;;;;22.10;28.00;;;;;;491805;240;1069;-72
2021/04/25 03:15:14;;;;;;;;;;;22.10;28.00;;;;;;491869;240;1210;-72
2021/04/25 03:17:15;;;;;;;;;;;22.10;28.00;;;;;;491738;240;1114;-72
2021/04/25 03:19:16;;;;;;;;;;;22.10;28.00;;;;;;491893;240;1024;-72
2021/04/25 03:21:18;;;;;;;;;;;22.20;28.00;;;;;;491862;240;1224;-72
2021/04/25 03:23:19;;;;;;;;;;;22.10;27.90;;;;;;491895;240;1085;-72
2021/04/25 03:25:20;;;;;;;;;;;22.10;28.00;;;;;;491856;240;1147;-72
2021/04/25 03:27:21;;;;;;;;;;;22.10;28.00;;;;;;491853;240;1076;-72
2021/04/25 03:29:23;;;;;;;;;;;22.10;28.00;;;;;;491886;240;1209;-72
2021/04/25 03:31:24;;;;;;;;;;;22.10;28.00;;;;;;491846;240;2188;-73
2021/04/25 03:33:25;;;;;;;;;;;22.10;28.00;;;;;;491851;240;913;-73
2021/04/25 03:35:27;;;;;;;;;;;22.10;28.10;;;;;;491870;240;1024;-73
2021/04/25 03:37:28;;;;;;;;;;;22.10;28.00;;;;;;491883;240;927;-73
2021/04/25 03:39:29;;;;;;;;;;;22.00;28.10;;;;;;491860;240;1092;-72
2021/04/25 03:41:30;;;;;;;;;;;22.10;28.10;;;;;;491823;240;1052;-72
2021/04/25 03:43:32;;;;;;;;;;;22.00;28.10;;;;;;491933;240;954;-72
2021/04/25 03:45:33;;;;;;;;;;;22.00;28.10;;;;;;491920;240;1414;-72
2021/04/25 03:47:34;;;;;;;;;;;22.00;28.10;;;;;;491815;240;1115;-72
2021/04/25 03:49:35;;;;;;;;;;;22.00;28.10;;;;;;491877;240;982;-73
2021/04/25 03:51:37;;;;;;;;;;;22.00;28.10;;;;;;491743;240;2184;-73
2021/04/25 03:53:38;;;;;;;;;;;22.00;28.10;;;;;;491860;240;966;-73
2021/04/25 03:55:39;;;;;;;;;;;22.00;28.20;;;;;;491812;240;1144;-73
2021/04/25 03:57:41;;;;;;;;;;;22.00;28.20;;;;;;491867;240;1113;-73
2021/04/25 03:59:42;;;;;;;;;;;21.90;28.20;;;;;;491831;240;1143;-72
2021/04/25 04:01:43;;;;;;;;;;;22.00;28.20;;;;;;491822;240;943;-73
2021/04/25 04:03:44;;;;;;;;;;;21.90;28.20;;;;;;491869;240;966;-73
2021/04/25 04:05:46;;;;;;;;;;;21.90;28.20;;;;;;491841;240;941;-72
2021/04/25 04:07:47;;;;;;;;;;;21.90;28.20;;;;;;491849;240;989;-72
2021/04/25 04:09:48;;;;;;;;;;;22.00;28.20;;;;;;491937;240;946;-72
2021/04/25 04:11:50;;;;;;;;;;;22.00;28.20;;;;;;491791;240;2195;-73
2021/04/25 04:13:51;;;;;;;;;;;22.00;28.20;;;;;;491843;240;934;-72
2021/04/25 04:15:52;;;;;;;;;;;22.00;28.20;;;;;;491856;240;1180;-72
2021/04/25 04:17:54;;;;;;;;;;;22.00;28.20;;;;;;491794;240;944;-72
2021/04/25 04:19:56;;;;;;;;;;;21.90;28.20;;;;;;491874;240;927;-73
2021/04/25 04:21:58;;;;;;;;;;;21.90;28.30;;;;;;491874;240;1008;-73
2021/04/25 04:23:59;;;;;;;;;;;21.90;28.30;;;;;;491850;240;959;-73
2021/04/25 04:26:00;;;;;;;;;;;21.90;28.30;;;;;;491992;240;925;-72
2021/04/25 04:28:02;;;;;;;;;;;21.90;28.30;;;;;;491829;240;1249;-72
2021/04/25 04:30:03;;;;;;;;;;;22.00;28.30;;;;;;491831;240;1167;-72
2021/04/25 04:32:04;;;;;;;;;;;21.90;28.30;;;;;;491820;240;2146;-72
2021/04/25 04:34:05;;;;;;;;;;;22.00;28.30;;;;;;491936;240;951;-72
2021/04/25 04:36:07;;;;;;;;;;;21.90;28.30;;;;;;491858;240;943;-73
2021/04/25 04:38:08;;;;;;;;;;;21.90;28.30;;;;;;491955;240;1084;-73
2021/04/25 04:40:09;;;;;;;;;;;21.90;28.40;;;;;;491941;240;993;-73
2021/04/25 04:42:11;;;;;;;;;;;21.90;28.30;;;;;;491822;240;1037;-72
2021/04/25 04:44:12;;;;;;;;;;;21.90;28.40;;;;;;491896;240;1052;-72
2021/04/25 04:46:13;;;;;;;;;;;21.90;28.40;;;;;;491853;240;1173;-72
2021/04/25 04:48:14;;;;;;;;;;;21.80;28.50;;;;;;491938;240;1032;-73
2021/04/25 04:50:16;;;;;;;;;;;21.80;28.50;;;;;;491887;240;993;-73
2021/04/25 04:52:17;;;;;;;;;;;21.90;28.40;;;;;;491868;240;2172;-73
2021/04/25 04:54:18;;;;;;;;;;;21.90;28.50;;;;;;491921;240;996;-72
2021/04/25 04:56:19;;;;;;;;;;;21.80;28.50;;;;;;491842;240;981;-72
2021/04/25 04:58:21;;;;;;;;;;;21.90;28.50;;;;;;491902;240;961;-72
2021/04/25 05:00:22;;;;;;;;;;;21.90;28.50;;;;;;491964;240;1182;-72
2021/04/25 05:02:23;;;;;;;;;;;21.80;28.50;;;;;;491825;240;961;-73
2021/04/25 05:04:25;;;;;;;;;;;21.80;28.60;;;;;;491838;240;964;-72
2021/04/25 05:06:26;;;;;;;;;;;21.80;28.60;;;;;;491842;240;942;-72
2021/04/25 05:08:27;;;;;;;;;;;21.80;28.60;;;;;;491901;240;1207;-72
2021/04/25 05:10:29;;;;;;;;;;;21.80;28.60;;;;;;491816;240;1188;-73
2021/04/25 05:12:30;;;;;;;;;;;21.80;28.60;;;;;;491812;240;2191;-73
2021/04/25 05:14:31;;;;;;;;;;;21.70;28.70;;;;;;491856;240;989;-73
2021/04/25 05:16:32;;;;;;;;;;;21.70;28.70;;;;;;491863;240;1185;-72
2021/04/25 05:18:34;;;;;;;;;;;21.70;28.70;;;;;;491840;240;1031;-72
2021/04/25 05:20:35;;;;;;;;;;;21.70;28.70;;;;;;491796;238;1210;-72
2021/04/25 05:22:36;;;;;;;;;;;21.70;28.80;;;;;;491754;240;1069;-73
2021/04/25 05:24:38;;;;;;;;;;;21.70;28.80;;;;;;491854;240;986;-73
2021/04/25 05:26:39;;;;;;;;;;;21.70;28.70;;;;;;491831;240;1116;-72
2021/04/25 05:28:41;;;;;;;;;;;21.70;28.70;;;;;;491884;240;927;-72
2021/04/25 05:30:42;;;;;;;;;;;21.80;28.70;;;;;;491970;240;1354;-72
2021/04/25 05:32:43;;;;;;;;;;;21.90;28.70;;;;;;491708;240;2184;-73
2021/04/25 05:34:44;;;;;;;;;;;21.80;28.60;;;;;;491910;240;1058;-72
2021/04/25 05:36:46;;;;;;;;;;;21.90;28.60;;;;;;491784;240;1180;-73
2021/04/25 05:38:47;;;;;;;;;;;21.90;28.70;;;;;;491925;240;1049;-73
2021/04/25 05:40:49;;;;;;;;;;;21.80;28.70;;;;;;491825;240;934;-73
2021/04/25 05:42:50;;;;;;;;;;;21.80;28.80;;;;;;491878;240;1051;-73
2021/04/25 05:44:51;;;;;;;;;;;21.80;28.70;;;;;;491867;240;1016;-72
2021/04/25 05:46:52;;;;;;;;;;;21.80;28.70;;;;;;491786;240;1292;-73
2021/04/25 05:48:54;;;;;;;;;;;21.80;28.80;;;;;;491876;240;934;-73
2021/04/25 05:50:55;;;;;;;;;;;21.70;28.90;;;;;;491904;240;1071;-73
2021/04/25 05:52:56;;;;;;;;;;;21.60;29.00;;;;;;491807;240;2179;-73
2021/04/25 05:54:58;;;;;;;;;;;21.50;29.00;;;;;;491993;240;946;-73
2021/04/25 05:56:59;;;;;;;;;;;21.60;29.10;;;;;;491869;240;1378;-72
2021/04/25 05:59:00;;;;;;;;;;;21.50;29.10;;;;;;491925;240;1079;-73
2021/04/25 06:01:01;;;;;;;;;;;21.60;29.10;;;;;;491830;240;1048;-72
2021/04/25 06:03:03;;;;;;;;;;;21.50;29.00;;;;;;491851;240;1016;-72
2021/04/25 06:05:04;;;;;;;;;;;21.60;29.10;;;;;;491808;240;1003;-72
2021/04/25 06:07:05;;;;;;;;;;;21.60;29.00;;;;;;491825;240;965;-72
2021/04/25 06:09:06;;;;;;;;;;;21.70;29.00;;;;;;491797;240;1127;-72
2021/04/25 06:11:08;;;;;;;;;;;21.70;29.00;;;;;;491835;240;974;-73
2021/04/25 06:13:09;;;;;;;;;;;21.70;29.00;;;;;;491901;240;2199;-72
2021/04/25 06:15:10;;;;;;;;;;;21.70;29.00;;;;;;491917;240;1032;-73
2021/04/25 06:17:12;;;;;;;;;;;21.80;28.90;;;;;;491802;240;1206;-73
2021/04/25 06:19:13;;;;;;;;;;;21.80;28.90;;;;;;491853;240;1133;-73
2021/04/25 06:21:14;;;;;;;;;;;21.80;28.90;;;;;;491819;240;1104;-72
2021/04/25 06:23:16;;;;;;;;;;;21.80;28.90;;;;;;491878;240;955;-72
2021/04/25 06:25:17;;;;;;;;;;;21.70;29.00;;;;;;491886;240;1648;-72
2021/04/25 06:27:18;;;;;;;;;;;21.60;29.10;;;;;;491734;240;1178;-72
2021/04/25 06:29:19;;;;;;;;;;;21.60;29.10;;;;;;491829;240;1102;-72
2021/04/25 06:31:21;;;;;;;;;;;21.60;29.10;;;;;;491770;240;1242;-72
2021/04/25 06:33:22;;;;;;;;;;;21.50;29.20;;;;;;491836;240;2172;-73
2021/04/25 06:35:23;;;;;;;;;;;21.50;29.30;;;;;;491787;240;928;-72
2021/04/25 06:37:24;;;;;;;;;;;21.60;29.30;;;;;;491763;240;1197;-73
2021/04/25 06:39:26;;;;;;;;;;;21.50;29.30;;;;;;491885;240;948;-73
2021/04/25 06:41:27;;;;;;;;;;;21.50;29.40;;;;;;491835;240;1141;-72
2021/04/25 06:43:30;;;;;;;;;;;21.60;29.30;;;;;;491784;240;1053;-72
2021/04/25 06:45:30;;;;;;;;;;;21.60;29.20;;;;;;491774;241;1379;-72
2021/04/25 06:47:31;;;;;;;;;;;21.60;29.30;;;;;;491751;240;1103;-72
2021/04/25 06:49:32;;;;;;;;;;;21.60;29.20;;;;;;491823;240;1125;-73
2021/04/25 06:51:33;;;;;;;;;;;21.60;29.20;;;;;;491820;240;1216;-73
2021/04/25 06:53:35;;;;;;;;;;;21.70;29.20;;;;;;491818;240;2180;-73
2021/04/25 06:55:36;;;;;;;;;;;21.70;29.10;;;;;;491911;240;923;-72
2021/04/25 06:57:37;;;;;;;;;;;21.70;29.10;;;;;;491945;240;1017;-73
2021/04/25 06:59:39;;;;;;;;;;;21.80;29.20;;;;;;491900;240;944;-73
2021/04/25 07:01:40;;;;;;;;;;;21.70;29.10;;;;;;491894;238;1339;-72
2021/04/25 07:03:42;;;;;;;;;;;21.70;29.20;;;;;;491816;240;1006;-72
2021/04/25 07:05:43;;;;;;;;;;;21.60;29.20;;;;;;491848;240;985;-73
2021/04/25 07:07:44;;;;;;;;;;;21.70;29.20;;;;;;491868;240;950;-73
2021/04/25 07:09:46;;;;;;;;;;;21.70;29.20;;;;;;491819;240;1095;-72
2021/04/25 07:11:47;;;;;;;;;;;21.70;29.30;;;;;;491824;240;1191;-72
2021/04/25 07:13:48;;;;;;;;;;;21.60;29.30;;;;;;491849;240;2148;-73
2021/04/25 07:15:49;;;;;;;;;;;21.70;29.30;;;;;;491820;240;970;-72
2021/04/25 07:17:51;;;;;;;;;;;21.70;29.30;;;;;;491810;240;1172;-72
2021/04/25 07:19:52;;;;;;;;;;;21.70;29.20;;;;;;491874;240;1234;-72
2021/04/25 07:21:54;;;;;;;;;;;21.70;29.20;;;;;;491865;240;1032;-72
2021/04/25 07:23:55;;;;;;;;;;;21.70;29.20;;;;;;491856;240;1102;-73
2021/04/25 07:25:56;;;;;;;;;;;21.70;29.30;;;;;;491838;240;1109;-73
2021/04/25 07:27:57;;;;;;;;;;;21.70;29.30;;;;;;491907;240;1015;-72
2021/04/25 07:29:59;;;;;;;;;;;21.80;29.30;;;;;;491871;240;1027;-72
2021/04/25 07:32:00;;;;;;;;;;;21.70;29.30;;;;;;491866;240;1143;-72
2021/04/25 07:34:01;;;;;;;;;;;21.70;29.30;;;;;;491861;240;2140;-72
2021/04/25 07:36:08;;;;;;;;;;;21.80;29.30;;;;;;491870;240;934;-73
2021/04/25 07:38:04;;;;;;;;;;;21.80;29.40;;;;;;491863;241;1458;-72
2021/04/25 07:40:05;;;;;;;;;;;21.80;29.30;;;;;;491846;240;941;-72
2021/04/25 07:42:07;;;;;;;;;;;21.80;29.30;;;;;;491897;240;1186;-72
2021/04/25 07:44:08;;;;;;;;;;;21.80;29.40;;;;;;491912;240;1047;-72
2021/04/25 07:46:09;;;;;;;;;;;21.80;29.40;;;;;;491839;240;1307;-72
2021/04/25 07:48:10;;;;;;;;;;;21.80;29.40;;;;;;491838;240;1115;-72
2021/04/25 07:50:13;;;;;;;;;;;21.80;29.40;;;;;;491849;240;947;-72
2021/04/25 07:52:13;;;;;;;;;;;21.70;29.40;;;;;;491762;240;1490;-72
2021/04/25 07:54:15;;;;;;;;;;;21.80;29.50;;;;;;491853;240;2192;-73
2021/04/25 07:56:16;;;;;;;;;;;21.70;29.40;;;;;;491741;240;1211;-72
2021/04/25 07:58:17;;;;;;;;;;;21.70;29.40;;;;;;491892;240;1094;-72
2021/04/25 08:00:18;;;;;;;;;;;21.70;29.60;;;;;;491906;240;1090;-72
2021/04/25 08:02:22;;;;;;;;;;;21.70;29.50;;;;;;491817;240;1215;-72
2021/04/25 08:04:21;;;;;;;;;;;21.70;29.50;;;;;;491808;241;1463;-72
2021/04/25 08:06:23;;;;;;;;;;;21.70;29.60;;;;;;491760;240;1012;-72
2021/04/25 08:08:24;;;;;;;;;;;21.70;29.60;;;;;;491829;240;956;-72
2021/04/25 08:10:25;;;;;;;;;;;21.80;29.60;;;;;;491881;240;1156;-72
2021/04/25 08:12:26;;;;;;;;;;;21.80;29.50;;;;;;491886;240;1038;-72
2021/04/25 08:14:28;;;;;;;;;;;21.80;29.60;;;;;;491898;240;2184;-72
2021/04/25 08:16:29;;;;;;;;;;;21.80;29.70;;;;;;491810;240;928;-72
2021/04/25 08:18:30;;;;;;;;;;;21.80;29.70;;;;;;491880;240;1270;-72
2021/04/25 08:20:32;;;;;;;;;;;21.80;29.70;;;;;;491850;240;927;-72
2021/04/25 08:22:33;;;;;;;;;;;21.90;29.60;;;;;;491812;240;961;-73
2021/04/25 08:24:34;;;;;;;;;;;21.90;29.60;;;;;;491813;240;931;-73
2021/04/25 08:26:35;;;;;;;;;;;21.90;29.60;;;;;;491757;240;958;-72
2021/04/25 08:28:37;;;;;;;;;;;21.90;29.60;;;;;;491823;240;960;-72
2021/04/25 08:30:38;;;;;;;;;;;21.80;29.60;;;;;;491816;240;918;-72
2021/04/25 08:32:39;;;;;;;;;;;21.90;29.60;;;;;;491804;240;1174;-72
2021/04/25 08:34:41;;;;;;;;;;;21.90;29.60;;;;;;491796;240;2167;-72
2021/04/25 08:36:42;;;;;;;;;;;21.90;29.60;;;;;;491800;240;979;-72
2021/04/25 08:38:45;;;;;;;;;;;21.90;29.60;;;;;;491915;240;948;-72
2021/04/25 08:40:46;;;;;;;;;;;21.90;29.60;;;;;;491768;241;1379;-72
2021/04/25 08:42:46;;;;;;;;;;;21.90;29.50;;;;;;491889;242;1415;-72
2021/04/25 08:44:47;;;;;;;;;;;21.90;29.60;;;;;;491931;240;927;-72
2021/04/25 08:46:48;;;;;;;;;;;21.80;29.60;;;;;;491941;240;1206;-73
2021/04/25 08:48:50;;;;;;;;;;;21.80;29.60;;;;;;491879;240;1177;-73
2021/04/25 08:50:51;;;;;;;;;;;21.80;29.70;;;;;;491856;240;1142;-73
2021/04/25 08:52:52;;;;;;;;;;;21.80;29.70;;;;;;491862;240;1052;-73
2021/04/25 08:54:53;;;;;;;;;;;21.80;29.60;;;;;;491835;240;2113;-73
2021/04/25 08:56:55;;;;;;;;;;;21.90;29.60;;;;;;491846;240;1165;-73
2021/04/25 08:58:56;;;;;;;;;;;21.80;29.60;;;;;;491947;240;934;-72
2021/04/25 09:00:57;;;;;;;;;;;21.80;29.60;;;;;;491843;240;966;-72
2021/04/25 09:02:58;;;;;;;;;;;21.80;29.60;;;;;;491883;240;1394;-72
2021/04/25 09:05:00;;;;;;;;;;;21.80;29.60;;;;;;491757;240;957;-72
2021/04/25 09:07:01;;;;;;;;;;;21.80;29.60;;;;;;491833;240;1104;-73
2021/04/25 09:09:03;;;;;;;;;;;21.80;29.50;;;;;;491842;240;1039;-73
2021/04/25 09:11:04;;;;;;;;;;;21.80;29.60;;;;;;491885;240;1205;-72
2021/04/25 09:13:05;;;;;;;;;;;21.80;29.60;;;;;;491892;240;2191;-72
2021/04/25 09:15:06;;;;;;;;;;;21.80;29.60;;;;;;491910;240;936;-73
2021/04/25 09:17:08;;;;;;;;;;;21.80;29.60;;;;;;491810;240;1093;-73
2021/04/25 09:19:09;;;;;;;;;;;21.80;29.70;;;;;;491876;240;1173;-72
2021/04/25 09:21:11;;;;;;;;;;;21.80;29.60;;;;;;491797;240;1185;-72
2021/04/25 09:23:12;;;;;;;;;;;21.80;29.60;;;;;;491837;241;1284;-72
2021/04/25 09:25:14;;;;;;;;;;;21.70;29.60;;;;;;491847;240;1230;-72
2021/04/25 09:27:14;;;;;;;;;;;21.70;29.60;;;;;;491765;240;1488;-72
2021/04/25 09:29:15;;;;;;;;;;;21.70;29.60;;;;;;491816;240;1111;-73
2021/04/25 09:31:17;;;;;;;;;;;21.70;29.60;;;;;;491784;240;1223;-73
2021/04/25 09:33:18;;;;;;;;;;;21.70;29.60;;;;;;491788;240;2168;-73
2021/04/25 09:35:19;;;;;;;;;;;21.70;29.60;;;;;;491794;240;968;-73
2021/04/25 09:37:21;;;;;;;;;;;21.70;29.60;;;;;;491829;240;919;-72
2021/04/25 09:39:22;;;;;;;;;;;21.70;29.60;;;;;;491830;240;1024;-72
2021/04/25 09:41:23;;;;;;;;;;;21.70;29.60;;;;;;491844;240;1136;-72
2021/04/25 09:43:25;;;;;;;;;;;21.70;29.60;;;;;;492082;240;918;-72
2021/04/25 09:45:26;;;;;;;;;;;21.80;29.60;;;;;;491815;240;1404;-72
2021/04/25 09:47:27;;;;;;;;;;;21.80;29.50;;;;;;491896;240;1051;-72
2021/04/25 09:49:29;;;;;;;;;;;21.90;29.50;;;;;;491886;240;1204;-72
2021/04/25 09:51:30;;;;;;;;;;;21.80;29.50;;;;;;491781;240;1110;-72
2021/04/25 09:53:31;;;;;;;;;;;21.80;29.60;;;;;;491870;240;2136;-72
2021/04/25 09:55:34;;;;;;;;;;;21.90;29.60;;;;;;491905;240;922;-73
2021/04/25 09:57:34;;;;;;;;;;;21.90;29.60;;;;;;491779;242;1313;-72
2021/04/25 09:59:35;;;;;;;;;;;21.90;29.60;;;;;;491843;240;1020;-72
2021/04/25 10:01:36;;;;;;;;;;;21.90;29.50;;;;;;491800;240;1092;-72
2021/04/25 10:03:40;;;;;;;;;;;21.90;29.50;;;;;;491789;240;1154;-73
2021/04/25 10:05:39;;;;;;;;;;;21.90;29.50;;;;;;491854;241;1431;-72
2021/04/25 10:07:40;;;;;;;;;;;21.80;29.60;;;;;;491905;240;1018;-73
2021/04/25 10:09:41;;;;;;;;;;;21.80;29.50;;;;;;491929;240;941;-72
2021/04/25 10:11:43;;;;;;;;;;;21.80;29.50;;;;;;491752;240;1039;-72
2021/04/25 10:13:45;;;;;;;;;;;21.90;29.50;;;;;;491865;240;2191;-72
2021/04/25 10:15:46;;;;;;;;;;;21.90;29.40;;;;;;492016;240;964;-73
2021/04/25 10:17:48;;;;;;;;;;;21.90;29.40;;;;;;491855;240;969;-73
2021/04/25 10:19:49;;;;;;;;;;;22.00;29.40;;;;;;491843;240;1176;-73
2021/04/25 10:21:51;;;;;;;;;;;21.90;29.40;;;;;;491845;240;1089;-73
2021/04/25 10:23:51;;;;;;;;;;;21.90;29.40;;;;;;491836;240;1457;-72
2021/04/25 10:25:53;;;;;;;;;;;21.90;29.50;;;;;;491876;240;1132;-72
2021/04/25 10:27:54;;;;;;;;;;;21.80;29.50;;;;;;491836;240;1063;-73
2021/04/25 10:29:55;;;;;;;;;;;21.90;29.40;;;;;;491837;240;957;-72
2021/04/25 10:31:57;;;;;;;;;;;21.90;29.50;;;;;;491845;240;1109;-73
2021/04/25 10:33:59;;;;;;;;;;;21.80;29.40;;;;;;491804;240;2187;-72
2021/04/25 10:35:59;;;;;;;;;;;21.90;29.40;;;;;;491823;242;1512;-72
2021/04/25 10:38:00;;;;;;;;;;;21.90;29.40;;;;;;491859;240;1258;-72
2021/04/25 10:40:02;;;;;;;;;;;21.80;29.40;;;;;;491896;240;954;-72
2021/04/25 10:42:03;;;;;;;;;;;21.80;29.50;;;;;;491858;240;1135;-72
2021/04/25 10:44:04;;;;;;;;;;;21.80;29.50;;;;;;491926;240;945;-72
2021/04/25 10:46:06;;;;;;;;;;;21.90;29.50;;;;;;491818;240;1134;-72
2021/04/25 10:48:07;;;;;;;;;;;21.90;29.50;;;;;;491928;240;1532;-73
2021/04/25 10:50:08;;;;;;;;;;;21.90;29.50;;;;;;491879;240;1209;-73
2021/04/25 10:52:09;;;;;;;;;;;21.80;29.50;;;;;;491828;240;1251;-73
2021/04/25 10:54:11;;;;;;;;;;;21.80;29.50;;;;;;491883;240;2129;-72
2021/04/25 10:56:12;;;;;;;;;;;21.80;29.70;;;;;;491865;240;1102;-73
2021/04/25 10:58:13;;;;;;;;;;;21.80;29.60;;;;;;491872;240;945;-72
2021/04/25 11:00:14;;;;;;;;;;;21.80;29.60;;;;;;491879;240;1007;-72
2021/04/25 11:02:16;;;;;;;;;;;21.90;29.50;;;;;;491792;240;1120;-72
2021/04/25 11:04:17;;;;;;;;;;;21.90;29.40;;;;;;491817;240;1216;-72
2021/04/25 11:06:18;;;;;;;;;;;21.90;29.40;;;;;;491793;240;1271;-73
2021/04/25 11:08:20;;;;;;;;;;;21.90;29.40;;;;;;491831;240;946;-73
2021/04/25 11:10:23;;;;;;;;;;;21.90;29.40;;;;;;491852;240;1018;-72
2021/04/25 11:12:24;;;;;;;;;;;22.00;29.30;;;;;;491758;240;1118;-73
2021/04/25 11:14:25;;;;;;;;;;;21.90;29.30;;;;;;491851;240;2137;-72
2021/04/25 11:16:26;;;;;;;;;;;22.00;29.40;;;;;;491787;240;1237;-72
2021/04/25 11:18:28;;;;;;;;;;;21.90;29.40;;;;;;491806;240;954;-72
2021/04/25 11:20:29;;;;;;;;;;;21.90;29.40;;;;;;491836;240;1197;-72
2021/04/25 11:22:30;;;;;;;;;;;22.00;29.30;;;;;;491725;240;1417;-72
2021/04/25 11:24:32;;;;;;;;;;;21.90;29.30;;;;;;491860;240;928;-73
2021/04/25 11:26:33;;;;;;;;;;;21.90;29.30;;;;;;491847;240;1113;-73
2021/04/25 11:28:34;;;;;;;;;;;21.90;29.30;;;;;;491847;240;969;-72
2021/04/25 11:30:36;;;;;;;;;;;21.90;29.30;;;;;;491886;240;1208;-72
2021/04/25 11:32:38;;;;;;;;;;;21.90;29.30;;;;;;491800;240;1071;-72
2021/04/25 11:34:38;;;;;;;;;;;21.90;29.30;;;;;;491766;241;2132;-72
2021/04/25 11:36:39;;;;;;;;;;;21.80;29.30;;;;;;491835;240;1112;-73
2021/04/25 11:38:41;;;;;;;;;;;21.80;29.40;;;;;;491799;240;937;-73
2021/04/25 11:40:42;;;;;;;;;;;21.90;29.30;;;;;;491800;240;969;-73
2021/04/25 11:42:50;;;;;;;;;;;21.90;29.30;;;;;;491812;240;1036;-73
2021/04/25 11:44:51;;;;;;;;;;;21.90;29.30;;;;;;491904;240;1026;-72
2021/04/25 11:46:53;;;;;;;;;;;21.80;29.20;;;;;;491892;240;948;-73
2021/04/25 11:48:54;;;;;;;;;;;21.90;29.20;;;;;;491950;240;960;-72
2021/04/25 11:50:55;;;;;;;;;;;21.80;29.20;;;;;;491905;240;1171;-73
2021/04/25 11:52:57;;;;;;;;;;;21.80;29.20;;;;;;491837;240;1065;-73
2021/04/25 11:54:58;;;;;;;;;;;21.80;29.10;;;;;;491856;240;2195;-72
2021/04/25 11:56:59;;;;;;;;;;;21.80;29.10;;;;;;491891;240;1091;-72
2021/04/25 11:59:00;;;;;;;;;;;21.80;29.10;;;;;;491854;240;942;-72